sensor_id;sensor_type;location;lat;lon;timestamp;temperature;humidity
42979;DHT22;28616;44.746;19.678;2022-11-21T00:00:35;6.10;99.90
42979;DHT22;28616;44.746;19.678;2022-11-21T00:03:01;6.10;99.90
42979;DHT22;28616;44.746;19.678;2022-11-21T00:05:28;6.20;99.90
42979;DHT22;28616;44.746;19.678;2022-11-21T00:07:55;6.10;99.90
42979;DHT22;28616;44.746;19.678;2022-11-21T00:10:22;6.10;99.90
42979;DHT22;28616;44.746;19.678;2022-11-21T00:12:55;6.20;99.90
42979;DHT22;28616;44.746;19.678;2022-11-21T00:15:22;6.10;99.90
42979;DHT22;28616;44.746;19.678;2022-11-21T00:17:48;6.20;99.90
42979;DHT22;28616;44.746;19.678;2022-11-21T00:20:15;6.20;99.90
42979;DHT22;28616;44.746;19.678;2022-11-21T00:22:41;6.10;99.90
42979;DHT22;28616;44.746;19.678;2022-11-21T00:25:07;6.10;99.90
42979;DHT22;28616;44.746;19.678;2022-11-21T00:27:33;6.10;99.90
42979;DHT22;28616;44.746;19.678;2022-11-21T00:29:58;6.10;99.90
42979;DHT22;28616;44.746;19.678;2022-11-21T00:32:24;6.00;99.90
42979;DHT22;28616;44.746;19.678;2022-11-21T00:34:50;6.00;99.90
42979;DHT22;28616;44.746;19.678;2022-11-21T00:37:15;6.00;99.90
42979;DHT22;28616;44.746;19.678;2022-11-21T00:39:41;6.00;99.90
42979;DHT22;28616;44.746;19.678;2022-11-21T00:42:07;6.00;99.90
42979;DHT22;28616;44.746;19.678;2022-11-21T00:44:33;6.00;99.90
42979;DHT22;28616;44.746;19.678;2022-11-21T00:46:59;6.00;99.90
42979;DHT22;28616;44.746;19.678;2022-11-21T00:49:24;6.00;99.90
42979;DHT22;28616;44.746;19.678;2022-11-21T00:51:50;6.00;99.90
42979;DHT22;28616;44.746;19.678;2022-11-21T00:54:16;6.00;99.90
42979;DHT22;28616;44.746;19.678;2022-11-21T00:56:42;6.00;99.90
42979;DHT22;28616;44.746;19.678;2022-11-21T00:59:08;6.00;99.90
42979;DHT22;28616;44.746;19.678;2022-11-21T01:01:33;6.00;99.90
42979;DHT22;28616;44.746;19.678;2022-11-21T01:03:59;6.00;99.90
42979;DHT22;28616;44.746;19.678;2022-11-21T01:06:25;6.00;99.90
42979;DHT22;28616;44.746;19.678;2022-11-21T01:08:51;6.00;99.90
42979;DHT22;28616;44.746;19.678;2022-11-21T01:11:19;6.00;99.90
42979;DHT22;28616;44.746;19.678;2022-11-21T01:13:45;6.00;99.90
42979;DHT22;28616;44.746;19.678;2022-11-21T01:16:17;6.00;99.90
42979;DHT22;28616;44.746;19.678;2022-11-21T01:18:43;6.00;99.90
42979;DHT22;28616;44.746;19.678;2022-11-21T01:21:38;6.00;99.90
42979;DHT22;28616;44.746;19.678;2022-11-21T01:24:04;6.00;99.90
42979;DHT22;28616;44.746;19.678;2022-11-21T01:26:30;6.00;99.90
42979;DHT22;28616;44.746;19.678;2022-11-21T01:28:58;6.00;99.90
42979;DHT22;28616;44.746;19.678;2022-11-21T01:31:28;6.00;99.90
42979;DHT22;28616;44.746;19.678;2022-11-21T01:33:56;6.00;99.90
42979;DHT22;28616;44.746;19.678;2022-11-21T01:36:28;6.00;99.90
42979;DHT22;28616;44.746;19.678;2022-11-21T01:38:56;6.00;99.90
42979;DHT22;28616;44.746;19.678;2022-11-21T01:41:25;6.00;99.90
42979;DHT22;28616;44.746;19.678;2022-11-21T01:43:51;6.00;99.90
42979;DHT22;28616;44.746;19.678;2022-11-21T01:46:19;6.00;99.90
42979;DHT22;28616;44.746;19.678;2022-11-21T01:49:07;6.00;99.90
42979;DHT22;28616;44.746;19.678;2022-11-21T01:51:51;6.00;99.90
42979;DHT22;28616;44.746;19.678;2022-11-21T01:54:58;6.00;99.90
42979;DHT22;28616;44.746;19.678;2022-11-21T01:57:32;6.00;99.90
42979;DHT22;28616;44.746;19.678;2022-11-21T02:00:09;6.00;99.90
42979;DHT22;28616;44.746;19.678;2022-11-21T02:02:40;6.00;99.90
42979;DHT22;28616;44.746;19.678;2022-11-21T02:05:10;6.00;99.90
42979;DHT22;28616;44.746;19.678;2022-11-21T02:07:40;6.10;99.90
42979;DHT22;28616;44.746;19.678;2022-11-21T02:10:08;6.00;99.90
42979;DHT22;28616;44.746;19.678;2022-11-21T02:12:41;6.00;99.90
42979;DHT22;28616;44.746;19.678;2022-11-21T02:15:09;6.00;99.90
42979;DHT22;28616;44.746;19.678;2022-11-21T02:17:35;6.00;99.90
42979;DHT22;28616;44.746;19.678;2022-11-21T02:20:06;6.00;99.90
42979;DHT22;28616;44.746;19.678;2022-11-21T02:22:43;6.00;99.90
42979;DHT22;28616;44.746;19.678;2022-11-21T02:25:25;6.00;99.90
42979;DHT22;28616;44.746;19.678;2022-11-21T02:27:57;6.00;99.90
42979;DHT22;28616;44.746;19.678;2022-11-21T02:30:23;6.00;99.90
42979;DHT22;28616;44.746;19.678;2022-11-21T02:32:52;6.00;99.90
42979;DHT22;28616;44.746;19.678;2022-11-21T02:35:18;6.00;99.90
42979;DHT22;28616;44.746;19.678;2022-11-21T02:37:53;6.00;99.90
42979;DHT22;28616;44.746;19.678;2022-11-21T02:40:24;6.00;99.90
42979;DHT22;28616;44.746;19.678;2022-11-21T02:43:09;6.00;99.90
42979;DHT22;28616;44.746;19.678;2022-11-21T02:45:40;6.00;99.90
42979;DHT22;28616;44.746;19.678;2022-11-21T02:48:06;6.00;99.90
42979;DHT22;28616;44.746;19.678;2022-11-21T02:50:34;6.00;99.90
42979;DHT22;28616;44.746;19.678;2022-11-21T02:53:00;6.00;99.90
42979;DHT22;28616;44.746;19.678;2022-11-21T02:55:27;6.00;99.90
42979;DHT22;28616;44.746;19.678;2022-11-21T02:57:53;6.00;99.90
42979;DHT22;28616;44.746;19.678;2022-11-21T03:00:19;6.00;99.90
42979;DHT22;28616;44.746;19.678;2022-11-21T03:02:46;6.00;99.90
42979;DHT22;28616;44.746;19.678;2022-11-21T03:05:14;6.00;99.90
42979;DHT22;28616;44.746;19.678;2022-11-21T03:07:40;6.00;99.90
42979;DHT22;28616;44.746;19.678;2022-11-21T03:10:06;6.00;99.90
42979;DHT22;28616;44.746;19.678;2022-11-21T03:12:35;6.00;99.90
42979;DHT22;28616;44.746;19.678;2022-11-21T03:15:01;5.90;99.90
42979;DHT22;28616;44.746;19.678;2022-11-21T03:17:27;5.90;99.90
42979;DHT22;28616;44.746;19.678;2022-11-21T03:19:53;5.90;99.90
42979;DHT22;28616;44.746;19.678;2022-11-21T03:22:18;5.80;99.90
42979;DHT22;28616;44.746;19.678;2022-11-21T03:24:44;5.90;99.90
42979;DHT22;28616;44.746;19.678;2022-11-21T03:27:10;5.90;99.90
42979;DHT22;28616;44.746;19.678;2022-11-21T03:29:36;5.90;99.90
42979;DHT22;28616;44.746;19.678;2022-11-21T03:32:02;5.90;99.90
42979;DHT22;28616;44.746;19.678;2022-11-21T03:34:27;5.90;99.90
42979;DHT22;28616;44.746;19.678;2022-11-21T03:36:53;6.00;99.90
42979;DHT22;28616;44.746;19.678;2022-11-21T03:39:19;6.00;99.90
42979;DHT22;28616;44.746;19.678;2022-11-21T03:41:45;5.90;99.90
42979;DHT22;28616;44.746;19.678;2022-11-21T03:44:11;6.00;99.90
42979;DHT22;28616;44.746;19.678;2022-11-21T03:46:39;5.90;99.90
42979;DHT22;28616;44.746;19.678;2022-11-21T03:49:06;5.90;99.90
42979;DHT22;28616;44.746;19.678;2022-11-21T03:51:32;5.90;99.90
42979;DHT22;28616;44.746;19.678;2022-11-21T03:53:58;5.90;99.90
42979;DHT22;28616;44.746;19.678;2022-11-21T03:56:24;6.00;99.90
42979;DHT22;28616;44.746;19.678;2022-11-21T03:58:50;5.90;99.90
42979;DHT22;28616;44.746;19.678;2022-11-21T04:01:16;5.90;99.90
42979;DHT22;28616;44.746;19.678;2022-11-21T04:03:42;5.90;99.90
42979;DHT22;28616;44.746;19.678;2022-11-21T04:06:09;5.90;99.90
42979;DHT22;28616;44.746;19.678;2022-11-21T04:08:35;5.90;99.90
42979;DHT22;28616;44.746;19.678;2022-11-21T04:11:01;5.90;99.90
42979;DHT22;28616;44.746;19.678;2022-11-21T04:13:27;5.90;99.90
42979;DHT22;28616;44.746;19.678;2022-11-21T04:15:53;5.90;99.90
42979;DHT22;28616;44.746;19.678;2022-11-21T04:18:18;6.00;99.90
42979;DHT22;28616;44.746;19.678;2022-11-21T04:20:44;6.00;99.90
42979;DHT22;28616;44.746;19.678;2022-11-21T04:23:10;5.90;99.90
42979;DHT22;28616;44.746;19.678;2022-11-21T04:25:36;5.90;99.90
42979;DHT22;28616;44.746;19.678;2022-11-21T04:28:03;5.90;99.90
42979;DHT22;28616;44.746;19.678;2022-11-21T04:30:29;5.90;99.90
42979;DHT22;28616;44.746;19.678;2022-11-21T04:32:56;6.00;99.90
42979;DHT22;28616;44.746;19.678;2022-11-21T04:35:22;5.90;99.90
42979;DHT22;28616;44.746;19.678;2022-11-21T04:37:49;5.90;99.90
42979;DHT22;28616;44.746;19.678;2022-11-21T04:40:15;5.90;99.90
42979;DHT22;28616;44.746;19.678;2022-11-21T04:42:41;5.80;99.90
42979;DHT22;28616;44.746;19.678;2022-11-21T04:45:08;5.90;99.90
42979;DHT22;28616;44.746;19.678;2022-11-21T04:47:38;5.90;99.90
42979;DHT22;28616;44.746;19.678;2022-11-21T04:50:05;5.90;99.90
42979;DHT22;28616;44.746;19.678;2022-11-21T04:52:31;5.90;99.90
42979;DHT22;28616;44.746;19.678;2022-11-21T04:54:57;5.90;99.90
42979;DHT22;28616;44.746;19.678;2022-11-21T04:57:23;5.80;99.90
42979;DHT22;28616;44.746;19.678;2022-11-21T04:59:49;5.90;99.90
42979;DHT22;28616;44.746;19.678;2022-11-21T05:02:15;5.80;99.90
42979;DHT22;28616;44.746;19.678;2022-11-21T05:04:41;5.80;99.90
42979;DHT22;28616;44.746;19.678;2022-11-21T05:07:06;5.80;99.90
42979;DHT22;28616;44.746;19.678;2022-11-21T05:09:32;5.80;99.90
42979;DHT22;28616;44.746;19.678;2022-11-21T05:11:58;5.80;99.90
42979;DHT22;28616;44.746;19.678;2022-11-21T05:14:42;5.80;99.90
42979;DHT22;28616;44.746;19.678;2022-11-21T05:17:08;5.70;99.90
42979;DHT22;28616;44.746;19.678;2022-11-21T05:19:34;5.80;99.90
42979;DHT22;28616;44.746;19.678;2022-11-21T05:22:00;5.80;99.90
42979;DHT22;28616;44.746;19.678;2022-11-21T05:24:25;5.80;99.90
42979;DHT22;28616;44.746;19.678;2022-11-21T05:26:52;5.80;99.90
42979;DHT22;28616;44.746;19.678;2022-11-21T05:29:18;5.80;99.90
42979;DHT22;28616;44.746;19.678;2022-11-21T05:31:44;5.80;99.90
42979;DHT22;28616;44.746;19.678;2022-11-21T05:34:09;5.80;99.90
42979;DHT22;28616;44.746;19.678;2022-11-21T05:36:35;5.80;99.90
42979;DHT22;28616;44.746;19.678;2022-11-21T05:39:01;5.80;99.90
42979;DHT22;28616;44.746;19.678;2022-11-21T05:41:27;5.80;99.90
42979;DHT22;28616;44.746;19.678;2022-11-21T05:43:52;5.70;99.90
42979;DHT22;28616;44.746;19.678;2022-11-21T05:46:20;5.70;99.90
42979;DHT22;28616;44.746;19.678;2022-11-21T05:48:47;5.70;99.90
42979;DHT22;28616;44.746;19.678;2022-11-21T05:51:14;5.70;99.90
42979;DHT22;28616;44.746;19.678;2022-11-21T05:53:40;5.70;99.90
42979;DHT22;28616;44.746;19.678;2022-11-21T05:56:08;5.70;99.90
42979;DHT22;28616;44.746;19.678;2022-11-21T05:58:34;5.70;99.90
42979;DHT22;28616;44.746;19.678;2022-11-21T06:01:01;5.80;99.90
42979;DHT22;28616;44.746;19.678;2022-11-21T06:03:30;5.80;99.90
42979;DHT22;28616;44.746;19.678;2022-11-21T06:05:58;5.80;99.90
42979;DHT22;28616;44.746;19.678;2022-11-21T06:08:29;5.70;99.90
42979;DHT22;28616;44.746;19.678;2022-11-21T06:10:55;5.80;99.90
42979;DHT22;28616;44.746;19.678;2022-11-21T06:13:21;5.80;99.90
42979;DHT22;28616;44.746;19.678;2022-11-21T06:16:02;5.80;99.90
42979;DHT22;28616;44.746;19.678;2022-11-21T06:18:34;5.80;99.90
42979;DHT22;28616;44.746;19.678;2022-11-21T06:21:08;5.80;99.90
42979;DHT22;28616;44.746;19.678;2022-11-21T06:23:35;5.80;99.90
42979;DHT22;28616;44.746;19.678;2022-11-21T06:26:03;5.80;99.90
42979;DHT22;28616;44.746;19.678;2022-11-21T06:28:31;5.80;99.90
42979;DHT22;28616;44.746;19.678;2022-11-21T06:31:04;5.90;99.90
42979;DHT22;28616;44.746;19.678;2022-11-21T06:33:31;5.90;99.90
42979;DHT22;28616;44.746;19.678;2022-11-21T06:35:56;5.90;99.90
42979;DHT22;28616;44.746;19.678;2022-11-21T06:38:22;6.00;99.90
42979;DHT22;28616;44.746;19.678;2022-11-21T06:40:48;6.00;99.90
42979;DHT22;28616;44.746;19.678;2022-11-21T06:43:13;5.90;99.90
42979;DHT22;28616;44.746;19.678;2022-11-21T06:45:39;5.90;99.90
42979;DHT22;28616;44.746;19.678;2022-11-21T06:48:05;6.00;99.90
42979;DHT22;28616;44.746;19.678;2022-11-21T06:50:31;6.00;99.90
42979;DHT22;28616;44.746;19.678;2022-11-21T06:52:57;6.00;99.90
42979;DHT22;28616;44.746;19.678;2022-11-21T06:55:24;6.00;99.90
42979;DHT22;28616;44.746;19.678;2022-11-21T06:57:50;6.00;99.90
42979;DHT22;28616;44.746;19.678;2022-11-21T07:00:17;6.10;99.90
42979;DHT22;28616;44.746;19.678;2022-11-21T07:02:42;6.10;99.90
42979;DHT22;28616;44.746;19.678;2022-11-21T07:05:08;6.10;99.90
42979;DHT22;28616;44.746;19.678;2022-11-21T07:07:34;6.10;99.90
42979;DHT22;28616;44.746;19.678;2022-11-21T07:10:00;6.10;99.90
42979;DHT22;28616;44.746;19.678;2022-11-21T07:12:26;6.10;99.90
42979;DHT22;28616;44.746;19.678;2022-11-21T07:15:10;6.10;99.90
42979;DHT22;28616;44.746;19.678;2022-11-21T07:17:36;6.10;99.90
42979;DHT22;28616;44.746;19.678;2022-11-21T07:20:02;6.10;99.90
42979;DHT22;28616;44.746;19.678;2022-11-21T07:22:28;6.10;99.90
42979;DHT22;28616;44.746;19.678;2022-11-21T07:24:54;6.20;99.90
42979;DHT22;28616;44.746;19.678;2022-11-21T07:27:19;6.20;99.90
42979;DHT22;28616;44.746;19.678;2022-11-21T07:29:45;6.20;99.90
42979;DHT22;28616;44.746;19.678;2022-11-21T07:32:11;6.20;99.90
42979;DHT22;28616;44.746;19.678;2022-11-21T07:34:36;6.30;99.90
42979;DHT22;28616;44.746;19.678;2022-11-21T07:37:02;6.30;99.90
42979;DHT22;28616;44.746;19.678;2022-11-21T07:39:28;6.30;99.90
42979;DHT22;28616;44.746;19.678;2022-11-21T07:41:54;6.40;99.90
42979;DHT22;28616;44.746;19.678;2022-11-21T07:44:20;6.40;99.90
42979;DHT22;28616;44.746;19.678;2022-11-21T07:46:46;6.40;99.90
42979;DHT22;28616;44.746;19.678;2022-11-21T07:49:11;6.40;99.90
42979;DHT22;28616;44.746;19.678;2022-11-21T07:51:37;6.50;99.90
42979;DHT22;28616;44.746;19.678;2022-11-21T07:54:03;6.50;99.90
42979;DHT22;28616;44.746;19.678;2022-11-21T07:56:29;6.50;99.90
42979;DHT22;28616;44.746;19.678;2022-11-21T07:58:54;6.60;99.90
42979;DHT22;28616;44.746;19.678;2022-11-21T08:01:20;6.50;99.90
42979;DHT22;28616;44.746;19.678;2022-11-21T08:03:46;6.60;99.90
42979;DHT22;28616;44.746;19.678;2022-11-21T08:06:12;6.60;99.90
42979;DHT22;28616;44.746;19.678;2022-11-21T08:08:38;6.70;99.90
42979;DHT22;28616;44.746;19.678;2022-11-21T08:11:04;6.70;99.90
42979;DHT22;28616;44.746;19.678;2022-11-21T08:13:31;6.80;99.90
42979;DHT22;28616;44.746;19.678;2022-11-21T08:15:57;6.90;99.90
42979;DHT22;28616;44.746;19.678;2022-11-21T08:18:23;7.00;99.90
42979;DHT22;28616;44.746;19.678;2022-11-21T08:20:48;7.00;99.90
42979;DHT22;28616;44.746;19.678;2022-11-21T08:23:15;7.10;99.90
42979;DHT22;28616;44.746;19.678;2022-11-21T08:25:41;7.10;99.90
42979;DHT22;28616;44.746;19.678;2022-11-21T08:28:08;7.00;99.90
42979;DHT22;28616;44.746;19.678;2022-11-21T08:30:35;7.10;99.90
42979;DHT22;28616;44.746;19.678;2022-11-21T08:33:02;7.10;99.90
42979;DHT22;28616;44.746;19.678;2022-11-21T08:35:28;7.20;99.90
42979;DHT22;28616;44.746;19.678;2022-11-21T08:37:58;7.20;99.90
42979;DHT22;28616;44.746;19.678;2022-11-21T08:40:28;7.40;99.90
42979;DHT22;28616;44.746;19.678;2022-11-21T08:43:03;7.40;99.90
42979;DHT22;28616;44.746;19.678;2022-11-21T08:45:29;7.40;99.90
42979;DHT22;28616;44.746;19.678;2022-11-21T08:47:55;7.40;99.90
42979;DHT22;28616;44.746;19.678;2022-11-21T08:50:22;7.50;99.90
42979;DHT22;28616;44.746;19.678;2022-11-21T08:52:48;7.60;99.90
42979;DHT22;28616;44.746;19.678;2022-11-21T08:55:14;7.70;99.90
42979;DHT22;28616;44.746;19.678;2022-11-21T08:57:41;7.60;99.90
42979;DHT22;28616;44.746;19.678;2022-11-21T09:00:08;7.70;99.90
42979;DHT22;28616;44.746;19.678;2022-11-21T09:02:35;7.70;99.90
42979;DHT22;28616;44.746;19.678;2022-11-21T09:05:01;7.60;99.90
42979;DHT22;28616;44.746;19.678;2022-11-21T09:07:26;7.60;99.90
42979;DHT22;28616;44.746;19.678;2022-11-21T09:09:52;7.60;99.90
42979;DHT22;28616;44.746;19.678;2022-11-21T09:12:18;7.50;99.90
42979;DHT22;28616;44.746;19.678;2022-11-21T09:14:44;7.60;99.90
42979;DHT22;28616;44.746;19.678;2022-11-21T09:17:28;7.60;99.90
42979;DHT22;28616;44.746;19.678;2022-11-21T09:20:12;7.60;99.90
42979;DHT22;28616;44.746;19.678;2022-11-21T09:22:38;7.70;99.90
42979;DHT22;28616;44.746;19.678;2022-11-21T09:25:04;7.60;99.90
42979;DHT22;28616;44.746;19.678;2022-11-21T09:27:30;7.60;99.90
42979;DHT22;28616;44.746;19.678;2022-11-21T09:29:56;7.50;99.90
42979;DHT22;28616;44.746;19.678;2022-11-21T09:32:22;7.60;99.90
42979;DHT22;28616;44.746;19.678;2022-11-21T09:34:48;7.50;99.90
42979;DHT22;28616;44.746;19.678;2022-11-21T09:37:14;7.60;99.90
42979;DHT22;28616;44.746;19.678;2022-11-21T09:39:39;7.60;99.90
42979;DHT22;28616;44.746;19.678;2022-11-21T09:45:03;7.60;99.90
42979;DHT22;28616;44.746;19.678;2022-11-21T09:47:33;7.60;99.90
42979;DHT22;28616;44.746;19.678;2022-11-21T09:50:05;7.60;99.90
42979;DHT22;28616;44.746;19.678;2022-11-21T09:53:05;7.60;99.90
42979;DHT22;28616;44.746;19.678;2022-11-21T09:58:03;7.60;99.90
42979;DHT22;28616;44.746;19.678;2022-11-21T10:00:29;7.60;99.90
42979;DHT22;28616;44.746;19.678;2022-11-21T10:02:56;7.60;99.90
42979;DHT22;28616;44.746;19.678;2022-11-21T10:05:35;7.70;99.90
42979;DHT22;28616;44.746;19.678;2022-11-21T10:08:13;7.70;99.90
42979;DHT22;28616;44.746;19.678;2022-11-21T10:18:30;7.70;99.90
42979;DHT22;28616;44.746;19.678;2022-11-21T10:31:54;7.70;99.90
42979;DHT22;28616;44.746;19.678;2022-11-21T10:34:24;7.70;99.90
42979;DHT22;28616;44.746;19.678;2022-11-21T10:36:58;7.80;99.90
42979;DHT22;28616;44.746;19.678;2022-11-21T10:39:40;7.80;99.90
42979;DHT22;28616;44.746;19.678;2022-11-21T10:44:53;7.90;99.90
42979;DHT22;28616;44.746;19.678;2022-11-21T10:47:37;7.90;99.90
42979;DHT22;28616;44.746;19.678;2022-11-21T10:50:13;8.00;99.90
42979;DHT22;28616;44.746;19.678;2022-11-21T10:53:02;8.10;99.90
42979;DHT22;28616;44.746;19.678;2022-11-21T10:58:47;8.20;99.90
42979;DHT22;28616;44.746;19.678;2022-11-21T11:01:33;8.30;99.90
42979;DHT22;28616;44.746;19.678;2022-11-21T11:06:43;8.50;99.90
42979;DHT22;28616;44.746;19.678;2022-11-21T11:09:30;8.60;99.90
42979;DHT22;28616;44.746;19.678;2022-11-21T11:12:30;8.60;99.90
42979;DHT22;28616;44.746;19.678;2022-11-21T11:15:17;8.70;99.90
42979;DHT22;28616;44.746;19.678;2022-11-21T11:17:50;8.60;99.90
42979;DHT22;28616;44.746;19.678;2022-11-21T11:20:31;8.50;99.90
42979;DHT22;28616;44.746;19.678;2022-11-21T11:22:57;8.40;99.90
42979;DHT22;28616;44.746;19.678;2022-11-21T11:25:23;8.50;99.90
42979;DHT22;28616;44.746;19.678;2022-11-21T11:27:49;8.40;99.90
42979;DHT22;28616;44.746;19.678;2022-11-21T11:30:16;8.30;99.90
42979;DHT22;28616;44.746;19.678;2022-11-21T11:32:42;8.20;99.90
42979;DHT22;28616;44.746;19.678;2022-11-21T11:35:20;8.10;99.90
42979;DHT22;28616;44.746;19.678;2022-11-21T11:37:58;8.20;99.90
42979;DHT22;28616;44.746;19.678;2022-11-21T11:40:34;8.10;99.90
42979;DHT22;28616;44.746;19.678;2022-11-21T11:43:11;8.00;99.90
42979;DHT22;28616;44.746;19.678;2022-11-21T11:49:54;8.10;99.90
42979;DHT22;28616;44.746;19.678;2022-11-21T11:53:03;8.10;99.90
42979;DHT22;28616;44.746;19.678;2022-11-21T11:58:09;8.10;99.90
42979;DHT22;28616;44.746;19.678;2022-11-21T12:00:49;8.20;99.90
42979;DHT22;28616;44.746;19.678;2022-11-21T12:08:45;8.20;99.90
42979;DHT22;28616;44.746;19.678;2022-11-21T12:14:21;8.20;99.90
42979;DHT22;28616;44.746;19.678;2022-11-21T12:17:13;8.20;99.90
42979;DHT22;28616;44.746;19.678;2022-11-21T12:19:41;8.20;99.90
42979;DHT22;28616;44.746;19.678;2022-11-21T12:22:08;8.20;99.90
42979;DHT22;28616;44.746;19.678;2022-11-21T12:24:36;8.30;99.90
42979;DHT22;28616;44.746;19.678;2022-11-21T12:35:36;8.20;99.90
42979;DHT22;28616;44.746;19.678;2022-11-21T12:53:03;8.20;99.90
42979;DHT22;28616;44.746;19.678;2022-11-21T12:55:54;8.20;99.90
42979;DHT22;28616;44.746;19.678;2022-11-21T12:58:34;8.20;99.90
42979;DHT22;28616;44.746;19.678;2022-11-21T13:04:07;8.30;99.90
42979;DHT22;28616;44.746;19.678;2022-11-21T13:06:40;8.30;99.90
42979;DHT22;28616;44.746;19.678;2022-11-21T13:09:12;8.30;99.90
42979;DHT22;28616;44.746;19.678;2022-11-21T13:11:49;8.40;99.90
42979;DHT22;28616;44.746;19.678;2022-11-21T13:14:49;8.40;99.90
42979;DHT22;28616;44.746;19.678;2022-11-21T13:20:38;8.40;99.90
42979;DHT22;28616;44.746;19.678;2022-11-21T13:23:06;8.40;99.90
42979;DHT22;28616;44.746;19.678;2022-11-21T13:25:50;8.40;99.90
42979;DHT22;28616;44.746;19.678;2022-11-21T13:30:47;8.40;99.90
42979;DHT22;28616;44.746;19.678;2022-11-21T13:36:05;8.40;99.90
42979;DHT22;28616;44.746;19.678;2022-11-21T13:47:00;8.40;99.90
42979;DHT22;28616;44.746;19.678;2022-11-21T13:58:02;8.40;99.90
42979;DHT22;28616;44.746;19.678;2022-11-21T14:09:17;8.30;99.90
42979;DHT22;28616;44.746;19.678;2022-11-21T14:14:32;8.30;99.90
42979;DHT22;28616;44.746;19.678;2022-11-21T14:19:34;8.30;99.90
42979;DHT22;28616;44.746;19.678;2022-11-21T14:22:00;8.30;99.90
42979;DHT22;28616;44.746;19.678;2022-11-21T14:24:26;8.30;99.90
42979;DHT22;28616;44.746;19.678;2022-11-21T14:26:52;8.30;99.90
42979;DHT22;28616;44.746;19.678;2022-11-21T14:31:49;8.30;99.90
42979;DHT22;28616;44.746;19.678;2022-11-21T14:34:28;8.30;99.90
42979;DHT22;28616;44.746;19.678;2022-11-21T14:36:56;8.30;99.90
42979;DHT22;28616;44.746;19.678;2022-11-21T14:39:26;8.30;99.90
42979;DHT22;28616;44.746;19.678;2022-11-21T14:41:57;8.30;99.90
42979;DHT22;28616;44.746;19.678;2022-11-21T14:44:24;8.20;99.90
42979;DHT22;28616;44.746;19.678;2022-11-21T14:46:51;8.20;99.90
42979;DHT22;28616;44.746;19.678;2022-11-21T14:49:26;8.20;99.90
42979;DHT22;28616;44.746;19.678;2022-11-21T14:54:25;8.20;99.90
42979;DHT22;28616;44.746;19.678;2022-11-21T14:57:05;8.10;99.90
42979;DHT22;28616;44.746;19.678;2022-11-21T14:59:41;8.10;99.90
42979;DHT22;28616;44.746;19.678;2022-11-21T15:02:24;8.00;99.90
42979;DHT22;28616;44.746;19.678;2022-11-21T15:04:52;8.00;99.90
42979;DHT22;28616;44.746;19.678;2022-11-21T15:07:24;8.00;99.90
42979;DHT22;28616;44.746;19.678;2022-11-21T15:09:51;7.90;99.90
42979;DHT22;28616;44.746;19.678;2022-11-21T15:14:57;7.90;99.90
42979;DHT22;28616;44.746;19.678;2022-11-21T15:17:25;7.90;99.90
42979;DHT22;28616;44.746;19.678;2022-11-21T15:20:27;7.80;99.90
42979;DHT22;28616;44.746;19.678;2022-11-21T15:23:00;7.80;99.90
42979;DHT22;28616;44.746;19.678;2022-11-21T15:25:43;7.80;99.90
42979;DHT22;28616;44.746;19.678;2022-11-21T15:28:14;7.80;99.90
42979;DHT22;28616;44.746;19.678;2022-11-21T15:30:41;7.80;99.90
42979;DHT22;28616;44.746;19.678;2022-11-21T15:41:24;7.70;99.90
42979;DHT22;28616;44.746;19.678;2022-11-21T15:43:54;7.80;99.90
42979;DHT22;28616;44.746;19.678;2022-11-21T15:46:26;7.70;99.90
42979;DHT22;28616;44.746;19.678;2022-11-21T15:48:54;7.70;99.90
42979;DHT22;28616;44.746;19.678;2022-11-21T15:51:33;7.70;99.90
42979;DHT22;28616;44.746;19.678;2022-11-21T15:54:00;7.70;99.90
42979;DHT22;28616;44.746;19.678;2022-11-21T15:56:26;7.70;99.90
42979;DHT22;28616;44.746;19.678;2022-11-21T15:58:52;7.60;99.90
42979;DHT22;28616;44.746;19.678;2022-11-21T16:01:25;7.70;99.90
42979;DHT22;28616;44.746;19.678;2022-11-21T16:03:58;7.60;99.90
42979;DHT22;28616;44.746;19.678;2022-11-21T16:06:24;7.60;99.90
42979;DHT22;28616;44.746;19.678;2022-11-21T16:08:50;7.60;99.90
42979;DHT22;28616;44.746;19.678;2022-11-21T16:11:35;7.60;99.90
42979;DHT22;28616;44.746;19.678;2022-11-21T16:14:10;7.60;99.90
42979;DHT22;28616;44.746;19.678;2022-11-21T16:16:39;7.60;99.90
42979;DHT22;28616;44.746;19.678;2022-11-21T16:19:05;7.60;99.90
42979;DHT22;28616;44.746;19.678;2022-11-21T16:21:30;7.60;99.90
42979;DHT22;28616;44.746;19.678;2022-11-21T16:23:56;7.50;99.90
42979;DHT22;28616;44.746;19.678;2022-11-21T16:26:22;7.50;99.90
42979;DHT22;28616;44.746;19.678;2022-11-21T16:28:56;7.60;99.90
42979;DHT22;28616;44.746;19.678;2022-11-21T16:31:25;7.60;99.90
42979;DHT22;28616;44.746;19.678;2022-11-21T16:33:51;7.60;99.90
42979;DHT22;28616;44.746;19.678;2022-11-21T16:36:25;7.50;99.90
42979;DHT22;28616;44.746;19.678;2022-11-21T16:38:52;7.50;99.90
42979;DHT22;28616;44.746;19.678;2022-11-21T16:41:19;7.50;99.90
42979;DHT22;28616;44.746;19.678;2022-11-21T16:43:50;7.50;99.90
42979;DHT22;28616;44.746;19.678;2022-11-21T16:46:17;7.50;99.90
42979;DHT22;28616;44.746;19.678;2022-11-21T16:48:44;7.50;99.90
42979;DHT22;28616;44.746;19.678;2022-11-21T16:51:11;7.50;99.90
42979;DHT22;28616;44.746;19.678;2022-11-21T16:53:41;7.50;99.90
42979;DHT22;28616;44.746;19.678;2022-11-21T16:56:07;7.50;99.90
42979;DHT22;28616;44.746;19.678;2022-11-21T16:58:34;7.50;99.90
42979;DHT22;28616;44.746;19.678;2022-11-21T17:01:11;7.40;99.90
42979;DHT22;28616;44.746;19.678;2022-11-21T17:03:43;7.40;99.90
42979;DHT22;28616;44.746;19.678;2022-11-21T17:06:10;7.40;99.90
42979;DHT22;28616;44.746;19.678;2022-11-21T17:08:36;7.40;99.90
42979;DHT22;28616;44.746;19.678;2022-11-21T17:11:17;7.40;99.90
42979;DHT22;28616;44.746;19.678;2022-11-21T17:13:44;7.40;99.90
42979;DHT22;28616;44.746;19.678;2022-11-21T17:16:11;7.30;99.90
42979;DHT22;28616;44.746;19.678;2022-11-21T17:18:38;7.30;99.90
42979;DHT22;28616;44.746;19.678;2022-11-21T17:21:05;7.30;99.90
42979;DHT22;28616;44.746;19.678;2022-11-21T17:23:34;7.30;99.90
42979;DHT22;28616;44.746;19.678;2022-11-21T17:26:05;7.20;99.90
42979;DHT22;28616;44.746;19.678;2022-11-21T17:28:31;7.20;99.90
42979;DHT22;28616;44.746;19.678;2022-11-21T17:30:57;7.20;99.90
42979;DHT22;28616;44.746;19.678;2022-11-21T17:33:23;7.20;99.90
42979;DHT22;28616;44.746;19.678;2022-11-21T17:35:49;7.20;99.90
42979;DHT22;28616;44.746;19.678;2022-11-21T17:38:15;7.10;99.90
42979;DHT22;28616;44.746;19.678;2022-11-21T17:40:41;7.10;99.90
42979;DHT22;28616;44.746;19.678;2022-11-21T17:43:07;7.10;99.90
42979;DHT22;28616;44.746;19.678;2022-11-21T17:45:36;7.00;99.90
42979;DHT22;28616;44.746;19.678;2022-11-21T17:48:01;7.00;99.90
42979;DHT22;28616;44.746;19.678;2022-11-21T17:50:27;7.00;99.90
42979;DHT22;28616;44.746;19.678;2022-11-21T17:52:53;6.90;99.90